Windber, Pennsylvania
Current Conditions -  °F | °C
As of 7:54 PM on Friday 31 Oct 2014 (Local Time) from KJST Reporting Station
Light Rain Light Rain  
Wind Chill: 36°   Ceiling: 1900
Heat Index: 39°   Visibility: 5mi
Dew Point: 36°   Wind: 5mph
Humidity: 89%   Direction: 60°ENE
Pressure: 29.84"   Gusts: NA
Location:  40.24°N, 78.84°W
Report Text: KJST 312354Z AUTO 06004KT 5SM -RA BR OVC019 04/02 A2984 RMK AO2 SLP119 P0001 60003 T00390022 10061 20039 53007
Loading
Personal Weather Stations






























Interactive Weather Map
Tropical Storm Tracking
New forecast layout! Learn more

10-Day Weather Forecast

Advertisements
Track Severe Weather on mobile